Time;durP1;ratioP1;P1;durP2;ratioP2;P2;SDS_P1;SDS_P2;PMS_P1;PMS_P2;Temp;Humidity;BMP_temperature;BMP_pressure;BME280_temperature;BME280_humidity;BME280_pressure;Samples;Min_cycle;Max_cycle;Signal;HPM_P1;HPM_P2
2022/10/27 00:01:33;;;;;;;;;;;11.80;96.20;;;;;;5041377;28;1360;-67
2022/10/27 00:04:01;;;;;;;;;;;11.80;96.20;;;;;;5035230;28;1083;-68
2022/10/27 00:06:29;;;;;;;;;;;11.80;96.20;;;;;;5044410;28;1135;-67
2022/10/27 00:08:56;;;;;;;;;;;11.80;96.20;;;;;;5041278;28;1635;-71
2022/10/27 00:11:24;;;;;;;;;;;11.80;96.20;;;;;;5041480;28;1365;-71
2022/10/27 00:13:52;;;;;;;;;;;11.70;96.10;;;;;;5041693;28;1008;-72
2022/10/27 00:16:21;;;;;;;;;;;11.80;96.20;;;;;;5041987;28;1040;-73
2022/10/27 00:18:48;;;;;;;;;;;11.70;96.30;;;;;;5035050;28;1989;-71
2022/10/27 00:21:17;;;;;;;;;;;11.80;96.20;;;;;;5033773;28;1550;-72
2022/10/27 00:23:47;;;;;;;;;;;11.70;96.30;;;;;;5035363;28;990;-73
2022/10/27 00:26:15;;;;;;;;;;;11.70;96.20;;;;;;5035952;28;1012;-73
2022/10/27 00:28:43;;;;;;;;;;;11.70;96.10;;;;;;5040944;28;1089;-70
2022/10/27 00:31:12;;;;;;;;;;;11.70;96.20;;;;;;5041367;28;1371;-73
2022/10/27 00:33:41;;;;;;;;;;;11.70;96.20;;;;;;5037016;28;992;-72
2022/10/27 00:36:10;;;;;;;;;;;11.70;96.30;;;;;;5041224;28;1143;-72
2022/10/27 00:38:38;;;;;;;;;;;11.70;96.30;;;;;;5037543;28;1910;-74
2022/10/27 00:41:06;;;;;;;;;;;11.60;96.40;;;;;;5038186;28;1295;-72
2022/10/27 00:43:35;;;;;;;;;;;11.60;96.40;;;;;;5034849;28;1141;-72
2022/10/27 00:46:05;;;;;;;;;;;11.60;96.30;;;;;;5036939;28;1515;-74
2022/10/27 00:48:33;;;;;;;;;;;11.60;96.30;;;;;;5039590;28;1025;-74
2022/10/27 00:51:02;;;;;;;;;;;11.60;96.20;;;;;;5034624;28;1375;-74
2022/10/27 00:53:30;;;;;;;;;;;11.60;96.20;;;;;;5040441;28;1666;-72
2022/10/27 00:55:58;;;;;;;;;;;11.60;96.20;;;;;;5041414;28;1015;-71
2022/10/27 00:58:26;;;;;;;;;;;11.60;96.20;;;;;;5041110;28;1984;-74
2022/10/27 01:00:53;;;;;;;;;;;11.60;96.10;;;;;;5041428;28;1507;-74
2022/10/27 01:03:23;;;;;;;;;;;11.60;96.10;;;;;;5040087;28;1260;-72
2022/10/27 01:05:52;;;;;;;;;;;11.50;96.00;;;;;;5040276;28;1075;-71
2022/10/27 01:08:22;;;;;;;;;;;11.50;96.20;;;;;;5041950;28;1491;-72
2022/10/27 01:10:50;;;;;;;;;;;11.50;96.10;;;;;;5038829;28;1575;-71
2022/10/27 01:13:18;;;;;;;;;;;11.40;96.40;;;;;;5040332;28;1089;-71
2022/10/27 01:15:48;;;;;;;;;;;11.40;96.30;;;;;;5043397;28;976;-71
2022/10/27 01:18:19;;;;;;;;;;;11.40;96.40;;;;;;5043756;28;1969;-72
2022/10/27 01:21:05;;;;;;;;;;;11.40;96.60;;;;;;5044215;28;1450;-72
2022/10/27 01:23:38;;;;;;;;;;;11.50;96.70;;;;;;5035005;28;1133;-71
2022/10/27 01:26:16;;;;;;;;;;;11.40;96.90;;;;;;5043698;28;1246;-71
2022/10/27 01:29:03;;;;;;;;;;;11.40;96.80;;;;;;5046179;28;1010;-71
2022/10/27 01:31:36;;;;;;;;;;;11.50;97.20;;;;;;5041964;28;1348;-71
2022/10/27 01:34:07;;;;;;;;;;;11.50;96.90;;;;;;5039120;28;1044;-71
2022/10/27 01:36:37;;;;;;;;;;;11.50;96.80;;;;;;5035948;28;1032;-72
2022/10/27 01:39:07;;;;;;;;;;;11.50;96.90;;;;;;5044058;28;1906;-72
2022/10/27 01:41:38;;;;;;;;;;;11.50;96.70;;;;;;5042757;28;1308;-74
2022/10/27 01:44:15;;;;;;;;;;;11.40;96.60;;;;;;5040733;28;910;-74
2022/10/27 01:46:44;;;;;;;;;;;11.40;96.60;;;;;;5042908;28;1084;-73
2022/10/27 01:49:11;;;;;;;;;;;11.40;96.60;;;;;;5037531;28;1069;-72
2022/10/27 01:51:39;;;;;;;;;;;11.40;96.80;;;;;;5044075;28;2062;-73
2022/10/27 01:54:07;;;;;;;;;;;11.40;96.70;;;;;;5041797;28;1049;-73
2022/10/27 01:56:47;;;;;;;;;;;11.30;96.80;;;;;;5037189;28;1056;-73
2022/10/27 01:59:20;;;;;;;;;;;11.40;96.70;;;;;;5039099;28;2097;-75
2022/10/27 02:01:58;;;;;;;;;;;11.40;96.50;;;;;;5043512;28;1343;-76
2022/10/27 02:04:29;;;;;;;;;;;11.40;96.60;;;;;;5042844;28;1282;-76
2022/10/27 02:06:59;;;;;;;;;;;11.40;96.50;;;;;;5045215;28;1171;-75
2022/10/27 02:09:30;;;;;;;;;;;11.30;96.50;;;;;;5047414;28;1071;-74
2022/10/27 02:12:00;;;;;;;;;;;11.30;96.40;;;;;;5045272;28;1308;-75
2022/10/27 02:20:41;;;;;;;;;;;11.30;97.00;;;;;;5063862;28;1417;-72
2022/10/27 02:23:10;;;;;;;;;;;11.40;97.20;;;;;;5056306;28;1572;-72
2022/10/27 02:25:40;;;;;;;;;;;11.30;97.30;;;;;;5061581;28;1059;-72
2022/10/27 02:28:09;;;;;;;;;;;11.30;97.20;;;;;;5056839;28;1107;-72
2022/10/27 02:30:39;;;;;;;;;;;11.30;97.00;;;;;;5060641;28;1354;-72
2022/10/27 02:33:06;;;;;;;;;;;11.30;97.00;;;;;;5065147;28;988;-72
2022/10/27 02:35:34;;;;;;;;;;;11.30;96.90;;;;;;5056616;28;1094;-74
2022/10/27 02:38:03;;;;;;;;;;;11.30;97.10;;;;;;5063251;28;1935;-72
2022/10/27 02:40:31;;;;;;;;;;;11.30;97.40;;;;;;5060609;28;1287;-71
2022/10/27 02:42:59;;;;;;;;;;;11.40;97.00;;;;;;5061407;28;1776;-73
2022/10/27 02:45:27;;;;;;;;;;;11.30;96.90;;;;;;5063939;28;1057;-72
2022/10/27 02:47:54;;;;;;;;;;;11.30;97.10;;;;;;5063004;28;1079;-72
2022/10/27 02:50:22;;;;;;;;;;;11.40;97.10;;;;;;5057001;28;1355;-72
2022/10/27 02:52:49;;;;;;;;;;;11.40;96.70;;;;;;5057011;28;1175;-70
2022/10/27 02:55:19;;;;;;;;;;;11.40;97.30;;;;;;5057318;28;1085;-67
2022/10/27 02:57:46;;;;;;;;;;;11.30;97.00;;;;;;5058240;28;1039;-68
2022/10/27 03:00:15;;;;;;;;;;;11.30;97.20;;;;;;5060187;28;1984;-73
2022/10/27 03:02:42;;;;;;;;;;;11.30;97.50;;;;;;5062774;28;1071;-69
2022/10/27 03:05:10;;;;;;;;;;;11.40;97.40;;;;;;5054422;28;1270;-70
2022/10/27 03:07:37;;;;;;;;;;;11.30;97.40;;;;;;5059782;28;1080;-72
2022/10/27 03:10:05;;;;;;;;;;;11.40;97.90;;;;;;5063271;28;1006;-71
2022/10/27 03:12:34;;;;;;;;;;;11.50;97.80;;;;;;5063291;28;1088;-68
2022/10/27 03:15:02;;;;;;;;;;;11.60;98.00;;;;;;5062210;28;1016;-69
2022/10/27 03:17:30;;;;;;;;;;;11.60;98.20;;;;;;5056783;28;1164;-73
2022/10/27 03:19:57;;;;;;;;;;;11.70;98.40;;;;;;5059990;28;2004;-72
2022/10/27 03:22:26;;;;;;;;;;;11.80;98.20;;;;;;5056881;28;1362;-70
2022/10/27 03:24:53;;;;;;;;;;;11.90;98.50;;;;;;5062569;28;1112;-76
2022/10/27 03:27:21;;;;;;;;;;;12.00;98.80;;;;;;5062818;28;1176;-70
2022/10/27 03:29:50;;;;;;;;;;;12.00;98.70;;;;;;5059685;28;1111;-72
2022/10/27 03:32:17;;;;;;;;;;;12.20;99.00;;;;;;5055368;28;1535;-70
2022/10/27 03:34:45;;;;;;;;;;;12.20;98.90;;;;;;5060621;28;1108;-69
2022/10/27 03:37:12;;;;;;;;;;;12.30;99.20;;;;;;5060247;28;1038;-72
2022/10/27 03:39:40;;;;;;;;;;;12.30;99.00;;;;;;5067478;28;1983;-72
2022/10/27 03:42:12;;;;;;;;;;;12.30;99.00;;;;;;5067985;28;1350;-73
2022/10/27 03:44:40;;;;;;;;;;;12.30;99.10;;;;;;5059938;28;1075;-73
2022/10/27 03:47:09;;;;;;;;;;;12.30;99.20;;;;;;5072284;28;1231;-71
2022/10/27 03:49:37;;;;;;;;;;;12.40;99.30;;;;;;5061497;28;1009;-73
2022/10/27 03:52:05;;;;;;;;;;;12.50;99.20;;;;;;5081766;28;1286;-71
2022/10/27 03:54:32;;;;;;;;;;;12.50;99.50;;;;;;5084491;28;1143;-72
2022/10/27 03:57:00;;;;;;;;;;;12.50;99.40;;;;;;5073981;28;1171;-71
2022/10/27 03:59:27;;;;;;;;;;;12.50;99.30;;;;;;5064046;28;1917;-71
2022/10/27 04:01:55;;;;;;;;;;;12.50;99.10;;;;;;5064798;28;1376;-68
2022/10/27 04:04:24;;;;;;;;;;;12.50;99.30;;;;;;5064417;28;1017;-68
2022/10/27 04:06:52;;;;;;;;;;;12.60;99.60;;;;;;5055256;28;1172;-73
2022/10/27 04:09:19;;;;;;;;;;;12.60;99.40;;;;;;5061820;28;1116;-71
2022/10/27 04:11:47;;;;;;;;;;;12.70;99.50;;;;;;5061607;28;1255;-72
2022/10/27 04:14:15;;;;;;;;;;;12.70;99.40;;;;;;5061545;28;1033;-69
2022/10/27 04:16:42;;;;;;;;;;;12.70;99.60;;;;;;5058675;28;1121;-69
2022/10/27 04:19:11;;;;;;;;;;;12.70;99.40;;;;;;5058633;28;1907;-71
2022/10/27 04:21:40;;;;;;;;;;;12.60;99.50;;;;;;5056311;28;1296;-71
2022/10/27 04:24:08;;;;;;;;;;;12.70;99.50;;;;;;5053731;28;1417;-71
2022/10/27 04:26:35;;;;;;;;;;;12.60;99.30;;;;;;5059663;28;2063;-70
2022/10/27 04:29:03;;;;;;;;;;;12.70;99.50;;;;;;5062914;28;1166;-72
2022/10/27 04:31:31;;;;;;;;;;;12.80;99.70;;;;;;5060696;28;1658;-70
2022/10/27 04:33:59;;;;;;;;;;;12.80;99.50;;;;;;5063812;28;1080;-72
2022/10/27 04:36:26;;;;;;;;;;;12.80;99.60;;;;;;5062180;28;1425;-71
2022/10/27 04:38:55;;;;;;;;;;;12.80;99.50;;;;;;5062722;28;1984;-72
2022/10/27 04:41:23;;;;;;;;;;;12.70;99.40;;;;;;5059701;28;1343;-71
2022/10/27 04:43:51;;;;;;;;;;;12.80;99.50;;;;;;5055594;28;1022;-70
2022/10/27 04:46:23;;;;;;;;;;;12.70;99.50;;;;;;5063346;28;1088;-71
2022/10/27 04:48:51;;;;;;;;;;;12.70;99.30;;;;;;5065043;28;1298;-71
2022/10/27 04:51:19;;;;;;;;;;;12.70;99.30;;;;;;5063662;28;1412;-69
2022/10/27 04:53:49;;;;;;;;;;;12.60;99.40;;;;;;5061282;28;1250;-70
2022/10/27 04:56:18;;;;;;;;;;;12.60;99.30;;;;;;5050339;28;6855;-70
2022/10/27 04:58:46;;;;;;;;;;;12.60;99.30;;;;;;5044619;28;1274;-69
2022/10/27 05:01:14;;;;;;;;;;;12.50;99.20;;;;;;5046719;28;6728;-69
2022/10/27 05:03:42;;;;;;;;;;;12.50;99.40;;;;;;5035058;28;10801;-70
2022/10/27 05:06:09;;;;;;;;;;;12.50;99.20;;;;;;5040973;28;10852;-69
2022/10/27 05:08:37;;;;;;;;;;;12.50;99.30;;;;;;5039600;28;1266;-68
2022/10/27 05:11:05;;;;;;;;;;;12.50;99.10;;;;;;5039644;28;1388;-67
2022/10/27 05:13:34;;;;;;;;;;;12.40;99.00;;;;;;5037408;28;1092;-68
2022/10/27 05:16:02;;;;;;;;;;;12.30;99.10;;;;;;5040465;28;1618;-68
2022/10/27 05:18:29;;;;;;;;;;;12.30;99.00;;;;;;5039013;28;1572;-69
2022/10/27 05:20:57;;;;;;;;;;;12.20;99.00;;;;;;5033570;28;1914;-68
2022/10/27 05:23:25;;;;;;;;;;;12.10;99.00;;;;;;5036726;28;993;-70
2022/10/27 05:25:53;;;;;;;;;;;12.00;98.90;;;;;;5040102;28;1105;-67
2022/10/27 05:28:21;;;;;;;;;;;11.90;98.90;;;;;;5034519;28;1089;-67
2022/10/27 05:30:50;;;;;;;;;;;11.90;99.00;;;;;;5040498;28;1359;-67
2022/10/27 05:33:19;;;;;;;;;;;11.80;98.90;;;;;;5040149;28;1231;-68
2022/10/27 05:35:46;;;;;;;;;;;11.80;98.80;;;;;;5034620;28;1048;-67
2022/10/27 05:38:14;;;;;;;;;;;11.80;98.90;;;;;;5037572;28;1008;-67
2022/10/27 05:40:41;;;;;;;;;;;11.70;98.70;;;;;;5037347;28;2013;-66
2022/10/27 05:43:09;;;;;;;;;;;11.70;98.80;;;;;;5040207;28;1112;-67
2022/10/27 05:45:36;;;;;;;;;;;11.70;98.70;;;;;;5043718;28;1159;-66
2022/10/27 05:48:07;;;;;;;;;;;11.60;98.60;;;;;;5041881;28;1160;-67
2022/10/27 05:50:35;;;;;;;;;;;11.60;98.80;;;;;;5043333;28;1462;-67
2022/10/27 05:53:02;;;;;;;;;;;11.60;98.90;;;;;;5039437;28;1305;-72
2022/10/27 05:55:30;;;;;;;;;;;11.60;98.90;;;;;;5042967;28;1184;-75
2022/10/27 05:57:59;;;;;;;;;;;11.60;99.00;;;;;;5038542;28;1216;-66
2022/10/27 06:00:29;;;;;;;;;;;11.60;99.10;;;;;;5040866;28;1914;-66
2022/10/27 06:02:57;;;;;;;;;;;11.60;99.50;;;;;;5041774;28;1619;-68
2022/10/27 06:05:26;;;;;;;;;;;11.60;99.30;;;;;;5045630;28;1255;-66
2022/10/27 06:07:53;;;;;;;;;;;11.50;98.80;;;;;;5041601;28;1156;-66
2022/10/27 06:10:21;;;;;;;;;;;11.40;98.80;;;;;;5049391;28;1306;-66
2022/10/27 06:12:49;;;;;;;;;;;11.40;99.10;;;;;;5045995;28;1629;-66
2022/10/27 06:15:16;;;;;;;;;;;11.50;99.50;;;;;;5041951;28;1089;-67
2022/10/27 06:17:44;;;;;;;;;;;11.50;99.00;;;;;;5044140;28;1172;-65
2022/10/27 06:20:12;;;;;;;;;;;11.60;99.20;;;;;;5045319;28;1894;-68
2022/10/27 06:22:41;;;;;;;;;;;11.50;99.00;;;;;;5043956;28;1089;-67
2022/10/27 06:25:08;;;;;;;;;;;11.50;99.10;;;;;;5045692;28;1392;-67
2022/10/27 06:27:36;;;;;;;;;;;11.40;99.00;;;;;;5044358;28;1634;-65
2022/10/27 06:30:04;;;;;;;;;;;11.40;98.80;;;;;;5042264;28;1974;-65
2022/10/27 06:32:37;;;;;;;;;;;11.60;99.40;;;;;;5042826;28;1728;-64
2022/10/27 06:35:07;;;;;;;;;;;11.40;98.80;;;;;;5040996;28;1522;-65
2022/10/27 06:37:37;;;;;;;;;;;11.60;99.10;;;;;;5045322;28;1458;-65
2022/10/27 06:40:07;;;;;;;;;;;11.60;98.80;;;;;;5048964;28;1910;-65
2022/10/27 06:42:36;;;;;;;;;;;11.60;98.70;;;;;;5049592;28;1062;-65
2022/10/27 06:45:17;;;;;;;;;;;11.60;98.70;;;;;;5048768;28;1432;-65
2022/10/27 06:47:44;;;;;;;;;;;11.60;98.90;;;;;;5050770;28;1300;-64
2022/10/27 06:50:12;;;;;;;;;;;11.40;99.10;;;;;;5051824;28;1596;-65
2022/10/27 06:52:40;;;;;;;;;;;11.30;99.30;;;;;;5056825;28;1201;-64
2022/10/27 06:55:09;;;;;;;;;;;11.30;99.40;;;;;;5048381;28;1486;-63
2022/10/27 06:57:40;;;;;;;;;;;11.30;99.40;;;;;;5047399;28;1586;-67
2022/10/27 07:00:09;;;;;;;;;;;11.30;99.60;;;;;;5045518;28;1272;-71
2022/10/27 07:02:36;;;;;;;;;;;11.20;99.70;;;;;;5044478;28;1910;-64
2022/10/27 07:05:05;;;;;;;;;;;11.20;99.60;;;;;;5047337;28;1068;-64
2022/10/27 07:07:34;;;;;;;;;;;11.40;99.80;;;;;;5047556;28;1510;-65
2022/10/27 07:10:03;;;;;;;;;;;11.30;99.60;;;;;;5044947;28;1263;-64
2022/10/27 07:12:32;;;;;;;;;;;11.40;99.60;;;;;;5049491;28;1189;-64
2022/10/27 07:15:00;;;;;;;;;;;11.50;99.80;;;;;;5047426;28;1096;-63
2022/10/27 07:17:28;;;;;;;;;;;11.40;99.70;;;;;;5049281;28;1483;-64
2022/10/27 07:19:55;;;;;;;;;;;11.40;99.60;;;;;;5045850;28;1272;-64
2022/10/27 07:22:23;;;;;;;;;;;11.60;99.80;;;;;;5043090;28;1910;-66
2022/10/27 07:24:51;;;;;;;;;;;11.60;99.80;;;;;;5040702;28;1037;-67
2022/10/27 07:27:19;;;;;;;;;;;11.70;99.60;;;;;;5044070;28;1078;-65
2022/10/27 07:29:48;;;;;;;;;;;11.60;99.70;;;;;;5042788;28;1033;-65
2022/10/27 07:32:20;;;;;;;;;;;11.60;99.70;;;;;;5046018;28;1508;-65
2022/10/27 07:34:47;;;;;;;;;;;11.60;99.80;;;;;;5048433;28;1079;-64
2022/10/27 07:37:15;;;;;;;;;;;11.70;99.80;;;;;;5046294;28;1166;-65
2022/10/27 07:39:43;;;;;;;;;;;11.90;99.80;;;;;;5043689;28;1079;-65
2022/10/27 07:42:10;;;;;;;;;;;11.80;99.80;;;;;;5044197;28;1910;-65
2022/10/27 07:44:38;;;;;;;;;;;11.80;99.70;;;;;;5045292;28;1463;-71
2022/10/27 07:47:07;;;;;;;;;;;11.90;99.80;;;;;;5044277;28;1154;-72
2022/10/27 07:49:34;;;;;;;;;;;12.00;99.80;;;;;;5039260;28;1606;-72
2022/10/27 07:52:02;;;;;;;;;;;12.10;99.80;;;;;;5043907;28;1358;-72
2022/10/27 07:54:29;;;;;;;;;;;12.20;99.70;;;;;;5044233;28;1412;-72
2022/10/27 07:56:57;;;;;;;;;;;12.30;99.70;;;;;;5048070;28;1059;-73
2022/10/27 07:59:25;;;;;;;;;;;12.50;99.70;;;;;;5046006;28;1066;-73
2022/10/27 08:01:52;;;;;;;;;;;12.50;99.70;;;;;;5035993;28;1995;-73
2022/10/27 08:04:21;;;;;;;;;;;12.60;99.60;;;;;;5041984;28;1654;-72
2022/10/27 08:06:49;;;;;;;;;;;12.80;99.60;;;;;;5040281;28;1123;-72
2022/10/27 08:09:17;;;;;;;;;;;12.70;99.50;;;;;;5043499;28;1049;-72
2022/10/27 08:11:46;;;;;;;;;;;12.70;99.20;;;;;;5044439;28;1404;-72
2022/10/27 08:14:14;;;;;;;;;;;12.80;99.40;;;;;;5045177;28;1097;-72
2022/10/27 08:16:41;;;;;;;;;;;12.80;99.50;;;;;;5046503;28;1224;-72
2022/10/27 08:19:09;;;;;;;;;;;12.80;99.50;;;;;;5047529;28;1049;-72
2022/10/27 08:21:38;;;;;;;;;;;12.80;99.50;;;;;;5043213;28;1910;-72
2022/10/27 08:24:06;;;;;;;;;;;12.90;99.70;;;;;;5047691;28;1064;-72
2022/10/27 08:26:34;;;;;;;;;;;13.00;99.70;;;;;;5041893;28;1499;-72
2022/10/27 08:29:01;;;;;;;;;;;13.10;99.70;;;;;;5043991;28;1161;-71
2022/10/27 08:31:29;;;;;;;;;;;13.10;99.60;;;;;;5044817;28;1279;-72
2022/10/27 08:33:57;;;;;;;;;;;13.30;99.70;;;;;;5047145;28;1245;-71
2022/10/27 08:36:24;;;;;;;;;;;13.40;99.50;;;;;;5044165;28;1163;-68
2022/10/27 08:38:53;;;;;;;;;;;13.50;99.60;;;;;;5042051;28;1530;-67
2022/10/27 08:41:24;;;;;;;;;;;13.60;99.50;;;;;;5041782;28;1898;-70
2022/10/27 08:44:08;;;;;;;;;;;13.70;99.30;;;;;;5042883;28;1463;-67
2022/10/27 08:46:38;;;;;;;;;;;13.80;99.40;;;;;;5043280;28;1463;-66
2022/10/27 08:49:09;;;;;;;;;;;13.90;99.40;;;;;;5042847;28;1443;-67
2022/10/27 08:51:38;;;;;;;;;;;13.90;99.30;;;;;;5043315;28;1446;-66
2022/10/27 08:54:09;;;;;;;;;;;14.00;99.20;;;;;;5045187;28;1547;-67
2022/10/27 08:56:38;;;;;;;;;;;14.10;99.00;;;;;;5044105;28;1508;-67
2022/10/27 08:59:13;;;;;;;;;;;14.20;99.30;;;;;;5048290;28;1410;-66
2022/10/27 09:01:44;;;;;;;;;;;14.30;99.50;;;;;;5045044;28;1906;-66
2022/10/27 09:04:22;;;;;;;;;;;14.40;99.30;;;;;;5046376;28;1084;-67
2022/10/27 09:06:55;;;;;;;;;;;14.50;99.10;;;;;;5045862;28;1116;-65
2022/10/27 09:09:28;;;;;;;;;;;14.80;98.50;;;;;;5044239;28;1057;-66
2022/10/27 09:12:00;;;;;;;;;;;14.80;98.60;;;;;;5048654;28;1488;-67
2022/10/27 09:14:47;;;;;;;;;;;14.80;98.30;;;;;;5045269;28;1048;-67
2022/10/27 09:17:19;;;;;;;;;;;15.00;98.20;;;;;;5044733;28;1007;-67
2022/10/27 09:19:48;;;;;;;;;;;15.00;98.20;;;;;;5046633;28;1253;-67
2022/10/27 09:22:17;;;;;;;;;;;15.10;98.00;;;;;;5048651;28;2296;-67
2022/10/27 09:24:49;;;;;;;;;;;15.00;97.90;;;;;;5042036;28;1062;-67
2022/10/27 09:27:17;;;;;;;;;;;15.00;98.00;;;;;;5045200;28;1260;-66
2022/10/27 09:29:45;;;;;;;;;;;15.10;97.70;;;;;;5045731;28;1460;-65
2022/10/27 09:32:15;;;;;;;;;;;15.00;97.40;;;;;;5046100;28;1350;-66
2022/10/27 09:34:45;;;;;;;;;;;15.10;97.20;;;;;;5044168;28;1105;-66
2022/10/27 09:37:13;;;;;;;;;;;15.30;96.80;;;;;;5045331;28;1084;-66
2022/10/27 09:39:43;;;;;;;;;;;15.40;96.70;;;;;;5049909;28;1097;-65
2022/10/27 09:42:12;;;;;;;;;;;15.40;96.60;;;;;;5046367;28;2017;-65
2022/10/27 09:44:40;;;;;;;;;;;15.50;96.90;;;;;;5044930;28;1333;-65
2022/10/27 09:47:08;;;;;;;;;;;15.70;96.10;;;;;;5046352;28;1058;-65
2022/10/27 09:49:37;;;;;;;;;;;15.80;96.10;;;;;;5046191;28;1072;-65
2022/10/27 09:52:10;;;;;;;;;;;15.90;95.70;;;;;;5045324;28;1369;-66
2022/10/27 09:54:41;;;;;;;;;;;16.20;95.00;;;;;;5048833;28;1053;-66
2022/10/27 09:57:10;;;;;;;;;;;16.00;95.30;;;;;;5050176;28;1462;-65
2022/10/27 09:59:40;;;;;;;;;;;16.00;95.30;;;;;;5046648;28;1055;-66
2022/10/27 10:02:22;;;;;;;;;;;16.00;95.30;;;;;;5047514;28;1906;-65
2022/10/27 10:04:50;;;;;;;;;;;16.00;95.60;;;;;;5045195;28;1524;-64
2022/10/27 10:07:30;;;;;;;;;;;16.00;95.70;;;;;;5052751;28;1021;-65
2022/10/27 10:10:00;;;;;;;;;;;16.20;95.00;;;;;;5044318;28;1105;-65
2022/10/27 10:12:28;;;;;;;;;;;16.20;95.10;;;;;;5047683;28;1386;-65
2022/10/27 10:15:10;;;;;;;;;;;16.10;95.30;;;;;;5044801;28;1072;-64
2022/10/27 10:17:40;;;;;;;;;;;16.20;95.00;;;;;;5037335;28;1510;-66
2022/10/27 10:20:23;;;;;;;;;;;16.30;94.70;;;;;;5037513;28;1001;-66
2022/10/27 10:22:51;;;;;;;;;;;16.40;94.50;;;;;;5039230;28;1906;-66
2022/10/27 10:25:20;;;;;;;;;;;16.40;94.50;;;;;;5044919;28;1048;-66
2022/10/27 10:27:55;;;;;;;;;;;16.50;94.50;;;;;;5044330;28;1382;-65
2022/10/27 10:30:23;;;;;;;;;;;16.50;94.40;;;;;;5047190;28;1408;-66
2022/10/27 10:32:54;;;;;;;;;;;16.50;94.30;;;;;;5044290;28;1087;-66
2022/10/27 10:35:42;;;;;;;;;;;16.70;94.10;;;;;;5036333;28;1061;-66
2022/10/27 10:38:24;;;;;;;;;;;16.70;94.00;;;;;;5036161;28;1021;-65
2022/10/27 10:40:56;;;;;;;;;;;16.70;93.90;;;;;;5035776;28;1351;-65
2022/10/27 10:43:24;;;;;;;;;;;16.80;94.00;;;;;;5041981;28;2010;-65
2022/10/27 10:45:52;;;;;;;;;;;16.70;94.10;;;;;;5041150;28;1536;-68
2022/10/27 10:48:38;;;;;;;;;;;16.70;94.40;;;;;;5042410;28;1599;-76
2022/10/27 10:51:08;;;;;;;;;;;16.70;94.40;;;;;;5038486;28;1512;-72
2022/10/27 10:53:38;;;;;;;;;;;16.80;94.40;;;;;;5045969;28;1987;-71
2022/10/27 10:56:07;;;;;;;;;;;16.90;94.30;;;;;;5045288;28;1148;-72
2022/10/27 10:58:36;;;;;;;;;;;16.90;94.40;;;;;;5046005;28;1346;-72
2022/10/27 11:01:04;;;;;;;;;;;16.90;94.30;;;;;;5043254;28;1453;-71
2022/10/27 11:03:33;;;;;;;;;;;17.00;94.00;;;;;;5043015;28;1909;-72
2022/10/27 11:06:03;;;;;;;;;;;17.10;94.10;;;;;;5042419;28;1180;-72
2022/10/27 11:08:36;;;;;;;;;;;17.20;93.80;;;;;;5040864;28;1487;-72
2022/10/27 11:11:12;;;;;;;;;;;17.40;93.60;;;;;;5042130;28;1438;-72
2022/10/27 11:13:41;;;;;;;;;;;17.40;93.20;;;;;;5044848;28;1162;-72
2022/10/27 11:16:10;;;;;;;;;;;17.40;93.20;;;;;;5043318;28;1544;-72
2022/10/27 11:18:43;;;;;;;;;;;17.40;93.00;;;;;;5044063;28;1096;-73
2022/10/27 11:21:14;;;;;;;;;;;17.50;93.00;;;;;;5040272;28;1439;-73
2022/10/27 11:23:44;;;;;;;;;;;17.30;93.50;;;;;;5034880;28;1910;-72
2022/10/27 11:26:13;;;;;;;;;;;17.20;93.80;;;;;;5042109;28;1028;-72
2022/10/27 11:28:46;;;;;;;;;;;17.30;93.70;;;;;;5042280;28;1151;-74
2022/10/27 11:31:18;;;;;;;;;;;17.30;93.90;;;;;;5035301;28;1769;-73
2022/10/27 11:33:49;;;;;;;;;;;17.30;93.90;;;;;;5037774;28;1145;-71
2022/10/27 11:36:19;;;;;;;;;;;17.50;93.50;;;;;;5039627;28;1051;-72
2022/10/27 11:38:54;;;;;;;;;;;17.60;93.70;;;;;;5041904;28;1077;-72
2022/10/27 11:41:25;;;;;;;;;;;17.70;93.70;;;;;;5040662;28;1399;-72
2022/10/27 11:43:56;;;;;;;;;;;17.90;93.30;;;;;;5038238;28;1887;-73
2022/10/27 11:46:36;;;;;;;;;;;18.10;93.00;;;;;;5050377;28;1515;-72
2022/10/27 11:49:08;;;;;;;;;;;18.00;93.30;;;;;;5040546;28;1040;-72
2022/10/27 11:51:37;;;;;;;;;;;18.00;93.00;;;;;;5039652;28;1594;-73
2022/10/27 11:54:06;;;;;;;;;;;18.10;93.00;;;;;;5038086;28;1000;-72
2022/10/27 11:56:42;;;;;;;;;;;18.20;92.90;;;;;;5034460;28;1617;-72
2022/10/27 11:59:16;;;;;;;;;;;18.20;92.80;;;;;;5044629;28;1014;-72
2022/10/27 12:01:51;;;;;;;;;;;18.20;92.50;;;;;;5043213;28;1634;-73
2022/10/27 12:04:23;;;;;;;;;;;18.20;92.90;;;;;;5041899;28;2020;-72
2022/10/27 12:06:55;;;;;;;;;;;18.30;92.80;;;;;;5043626;28;1421;-71
2022/10/27 12:09:29;;;;;;;;;;;18.40;92.70;;;;;;5048189;28;1039;-70
2022/10/27 12:12:01;;;;;;;;;;;18.30;92.90;;;;;;5054466;28;1343;-70
2022/10/27 12:14:31;;;;;;;;;;;18.40;92.90;;;;;;5054764;28;1060;-71
2022/10/27 12:17:01;;;;;;;;;;;18.40;93.00;;;;;;5047531;28;1298;-72
2022/10/27 12:19:34;;;;;;;;;;;18.30;93.10;;;;;;5045385;28;1084;-72
2022/10/27 12:22:07;;;;;;;;;;;18.30;93.20;;;;;;5051028;28;1353;-72
2022/10/27 12:24:38;;;;;;;;;;;18.30;93.20;;;;;;5047267;28;1906;-69
2022/10/27 12:27:11;;;;;;;;;;;18.40;93.20;;;;;;5040277;28;1438;-69
2022/10/27 12:29:41;;;;;;;;;;;18.40;93.10;;;;;;5049789;28;1105;-69
2022/10/27 12:32:11;;;;;;;;;;;18.40;92.90;;;;;;5042657;28;1396;-68
2022/10/27 12:34:43;;;;;;;;;;;18.50;93.20;;;;;;5038923;28;1020;-69
2022/10/27 12:37:14;;;;;;;;;;;18.50;93.20;;;;;;5037221;28;1159;-70
2022/10/27 12:39:51;;;;;;;;;;;18.50;93.10;;;;;;5043360;28;1096;-69
2022/10/27 12:42:21;;;;;;;;;;;18.60;93.30;;;;;;5040752;28;1429;-69
2022/10/27 12:44:53;;;;;;;;;;;18.60;93.00;;;;;;5039437;28;1906;-69
2022/10/27 12:47:27;;;;;;;;;;;18.70;93.10;;;;;;5040581;28;1139;-76
2022/10/27 12:50:01;;;;;;;;;;;18.80;93.00;;;;;;5035828;28;1575;-65
2022/10/27 12:52:29;;;;;;;;;;;18.90;92.50;;;;;;5042170;28;1393;-66
2022/10/27 12:55:08;;;;;;;;;;;18.90;92.40;;;;;;5040276;28;1060;-65
2022/10/27 12:57:42;;;;;;;;;;;19.00;92.40;;;;;;5033952;28;1088;-66
2022/10/27 13:00:12;;;;;;;;;;;18.90;92.60;;;;;;5033700;28;1060;-67
2022/10/27 13:02:42;;;;;;;;;;;19.00;92.70;;;;;;5033803;28;942;-67
2022/10/27 13:05:29;;;;;;;;;;;18.90;92.50;;;;;;5034338;28;1910;-67
2022/10/27 13:08:07;;;;;;;;;;;19.00;92.30;;;;;;5038697;28;1010;-66
2022/10/27 13:10:56;;;;;;;;;;;19.00;92.10;;;;;;5038638;28;1249;-66
2022/10/27 13:13:30;;;;;;;;;;;19.00;92.20;;;;;;5043507;28;1033;-66
2022/10/27 13:16:09;;;;;;;;;;;19.00;91.90;;;;;;5037956;28;1036;-67
2022/10/27 13:18:51;;;;;;;;;;;19.00;92.00;;;;;;5040835;28;1181;-67
2022/10/27 13:21:21;;;;;;;;;;;19.00;91.90;;;;;;5040155;28;1303;-67
2022/10/27 13:23:53;;;;;;;;;;;19.00;92.10;;;;;;5043029;28;1979;-67
2022/10/27 13:26:28;;;;;;;;;;;19.10;91.80;;;;;;5043762;28;1713;-71
2022/10/27 13:28:58;;;;;;;;;;;19.00;92.00;;;;;;5042795;28;1141;-66
2022/10/27 13:31:26;;;;;;;;;;;19.00;91.80;;;;;;5042456;28;1344;-66
2022/10/27 13:34:18;;;;;;;;;;;19.10;91.50;;;;;;5043111;28;1599;-66
2022/10/27 13:36:46;;;;;;;;;;;19.10;91.90;;;;;;5045397;28;1036;-66
2022/10/27 13:39:39;;;;;;;;;;;19.10;91.80;;;;;;5043716;28;1102;-66
2022/10/27 13:42:14;;;;;;;;;;;19.10;91.80;;;;;;5039740;28;1355;-66
2022/10/27 13:44:41;;;;;;;;;;;19.10;91.70;;;;;;5043363;28;1961;-65
2022/10/27 13:47:10;;;;;;;;;;;19.10;91.70;;;;;;5037932;28;2054;-66
2022/10/27 13:49:58;;;;;;;;;;;19.00;91.70;;;;;;5042853;28;1016;-65
2022/10/27 13:52:27;;;;;;;;;;;18.90;91.50;;;;;;5038812;28;1658;-66
2022/10/27 13:54:56;;;;;;;;;;;19.00;90.80;;;;;;5038116;28;1814;-65
2022/10/27 13:57:29;;;;;;;;;;;19.00;90.80;;;;;;5040129;28;1117;-65
2022/10/27 14:00:02;;;;;;;;;;;18.90;90.60;;;;;;5042354;28;2018;-66
2022/10/27 14:02:33;;;;;;;;;;;19.00;90.40;;;;;;5042518;28;1430;-66
2022/10/27 14:05:03;;;;;;;;;;;18.90;90.40;;;;;;5042280;28;1910;-69
2022/10/27 14:07:35;;;;;;;;;;;19.00;90.40;;;;;;5041424;28;1464;-71
2022/10/27 14:10:02;;;;;;;;;;;18.90;90.00;;;;;;5041473;28;997;-71
2022/10/27 14:12:33;;;;;;;;;;;18.90;90.20;;;;;;5045319;28;1453;-71
2022/10/27 14:15:03;;;;;;;;;;;18.80;90.30;;;;;;5042481;28;1148;-65
2022/10/27 14:17:30;;;;;;;;;;;18.70;90.50;;;;;;5044229;28;1085;-65
2022/10/27 14:20:00;;;;;;;;;;;18.80;90.40;;;;;;5036051;28;1097;-65
2022/10/27 14:22:33;;;;;;;;;;;18.80;90.50;;;;;;5041748;28;1374;-64
2022/10/27 14:25:03;;;;;;;;;;;18.80;90.40;;;;;;5042255;28;1906;-66
2022/10/27 14:27:32;;;;;;;;;;;19.00;90.50;;;;;;5042271;28;1674;-66
2022/10/27 14:30:04;;;;;;;;;;;18.80;90.50;;;;;;5039537;28;1761;-65
2022/10/27 14:32:32;;;;;;;;;;;18.90;90.60;;;;;;5041557;28;1509;-65
2022/10/27 14:35:14;;;;;;;;;;;18.80;90.70;;;;;;5042149;28;1548;-66
2022/10/27 14:37:42;;;;;;;;;;;18.60;90.70;;;;;;5043775;28;1067;-74
2022/10/27 14:40:13;;;;;;;;;;;18.60;90.90;;;;;;5042028;28;1065;-72
2022/10/27 14:42:42;;;;;;;;;;;18.60;91.00;;;;;;5038330;28;1497;-71
2022/10/27 14:45:12;;;;;;;;;;;18.40;91.10;;;;;;5043461;28;1991;-72
2022/10/27 14:47:41;;;;;;;;;;;18.40;91.30;;;;;;5039645;28;1069;-71
2022/10/27 14:50:12;;;;;;;;;;;18.40;91.40;;;;;;5036099;28;1210;-71
2022/10/27 14:52:42;;;;;;;;;;;18.30;91.40;;;;;;5043490;28;1093;-72
2022/10/27 14:55:16;;;;;;;;;;;18.20;91.50;;;;;;5040833;28;1180;-73